Team logos
Guidelines for entries Team Leaderboard Add or Update a Person FAQ
Jan 2019 - TOKYROW 2020
This challenge was chosen by Tokyrow


Row 20 minutes
Restricted at 20 SPM
(averaged stroke rate)

Enter your distance completed in 20 minutes.


The February CTC will be chosen by Fitness Matters

See C2 forum thread for details.

Most Recent EntriesAdd/Update an Entry
DateNameCatTeamResult
2019-01-22Graham WoodleyMHWTForum Flyers 4460
2019-01-22Andy FlewettMHWTGee Crew 4702
2019-01-22Kevin PappinMHWTGee Crew 4688
2019-01-22Stan NwakaMHWTTaff Attack Racing 5302
2019-01-22Roger CruttendenMHWTGee Crew 4315
Bold = new time; italic = updated time
Name:
Password:
Entry: metres
 
Current Leaderboard
Names in blue italics have added or updated their times within the past 24 hours.
#NameCatTeamResultPacePower
1Chandler SMSub 7 I 5947   1:40.9  340.8 
2Justin FarinaMGARAGEATHLETE I 5903   1:41.6  333.3 
3Stephen NewberryMGARAGEATHLETE I 5882   1:42.0  329.8 
4ESPRIT - Oli GrayMESPRIT I 5880   1:42.0  329.4 
5Graham BentonMMAD I 5871   1:42.2  327.9 
6Andy BenkoMPaddy Power I 5857   1:42.4  325.6 
7Olli ZeidlerMMAD I 5853   1:42.5  324.9 
8James SaxtonMTeam Oarsome I 5850   1:42.6  324.4 
9ESPRIT Jarek OlszowkaMESPRIT I 5836   1:42.8  322.1 
10Adam Harriman FMMFitness Matters I 5833   1:42.9  321.6 
11Green_GAMGARAGEATHLETE I 5831   1:42.9  321.3 
12Ivan SaricMBW Rowing I 5827   1:43.0  320.6 
13ESPRIT Derek PetersonMESPRIT I 5816   1:43.2  318.8 
14ESPRIT Dan GorenkinMESPRIT II 5775   1:43.9  312.1 
15Tim MalemMAD I 5762   1:44.1  310.0 
16Thomas D JackmanMTeam Oarsome I 5757   1:44.2  309.2 
17Moritz BOCKMBW Rowing I 5753   1:44.3  308.5 
18ESPRIT Nick BlountMESPRIT II 5746   1:44.4  307.4 
19ESPRIT Andy TomlinsonMESPRIT II 5744   1:44.5  307.1 
20ErtanMMAD I 5742   1:44.5  306.8 
21PR_SAVMTeam Oarsome I 5742   1:44.5  306.8 
22Tobias Stohr FMMFitness Matters I 5733   1:44.7  305.3 
23AAPaul BuchananMPaddy Power I 5732   1:44.7  305.2 
24Stewart WyllieMRowPro Rowers I 5725   1:44.8  304.0 
25Matt Zalewski GAMGARAGEATHLETE II 5723   1:44.8  303.7 
26Sam ChineryMMAD II 5723   1:44.8  303.7 
27Simon JonesMMAD II 5709   1:45.1  301.5 
28j.dMMAD II 5697   1:45.3  299.6 
29Damien MartinMRowPro Rowers I 5686   1:45.5  297.9 
30Andrew pristonMFitness Matters I 5677   1:45.7  296.5 
31Allan RidlerMFitness Matters II 5660   1:46.0  293.8 
32Max SchrammMBW Rowing I 5654   1:46.1  292.9 
33Mark MitchellmMAD II 5644   1:46.3  291.3 
34Jack MontgomeryMFitness Matters II 5643   1:46.3  291.2 
35Matthias BorghorstMBW Rowing II 5639   1:46.4  290.5 
36Keith DarbymRed Line Rowers I 5636   1:46.5  290.1 
37Sam BlytheMFitness Matters II 5632   1:46.5  289.5 
38Marius TSMSub 7 I 5630   1:46.6  289.2 
39SeanS GAMGARAGEATHLETE II 5620   1:46.8  287.6 
40Warren MatthewsMSub 7 I 5617   1:46.8  287.2 
41Ian WildeMSub 7 II 5616   1:46.8  287.0 
42Clemens BMBW Rowing II 5605   1:47.0  285.3 
43Mat Ward S7MSub 7 II 5603   1:47.1  285.0 
44ESPRIT David RackstrawMESPRIT III 5600   1:47.1  284.6 
45Jamie SandersMCornish Gig Rowers IRC I 5569   1:47.7  279.9 
46Roy JonesMMAD III 5568   1:47.8  279.7 
47Stewart MossMSub 7 II 5557   1:48.0  278.1 
48Andrew KingMCornish Gig Rowers IRC I 5557   1:48.0  278.1 
49BlanksbyFMMFitness Matters III 5554   1:48.0  277.6 
50Tim Garratt FMMFitness Matters III 5543   1:48.2  276.0 
51Edward CarpenterMTeam Oarsome II 5541   1:48.3  275.7 
52Alex DoidgeMSub 7 III 5534   1:48.4  274.6 
53ESPRIT Stuart ElvinMESPRIT III 5533   1:48.4  274.5 
54Pawel MatenkoMFitness Matters III 5528   1:48.5  273.7 
55ESPRIT Louis KirchellMESPRIT III 5524   1:48.6  273.1 
56Simon Amery FMmFitness Matters I 5520   1:48.7  272.5 
57Harry WilkesMSub 7 III 5515   1:48.8  271.8 
58Andy Reid Sub 7MSub 7 III 5514   1:48.8  271.7 
59macrothMForum Flyers I 5511   1:48.9  271.2 
60Moritz MarchartmMAD III 5510   1:48.9  271.1 
61Mark Rozewicz GAMGARAGEATHLETE II 5499   1:49.1  269.4 
62Kevin DohertyMGARAGEATHLETE III 5494   1:49.2  268.7 
63Dean HarrisMTRAIN Manchester I 5490   1:49.3  268.1 
64Felix PfeifferMBW Rowing II 5470   1:49.7  265.2 
65Victor PadeeMSub 7 IV 5465   1:49.8  264.5 
66Matty WestMSub 7 IV 5464   1:49.8  264.3 
67Valentin SchätzleinmBW Rowing I 5463   1:49.8  264.2 
68js.klsmFIRT I 5463   1:49.8  264.2 
69Casey ClarkeMSub 7 IV 5462   1:49.8  264.0 
70Peter ClowesMTeam Oarsome II 5458   1:49.9  263.5 
71Yannick HeratmGARAGEATHLETE I 5457   1:50.0  263.3 
72Michael AndersonMRed Line Rowers I 5457   1:50.0  263.3 
73Jon MelsonMDLC Gidea Park I 5455   1:50.0  263.0 
74ESPRIT Julian WarrickMESPRIT IV 5452   1:50.1  262.6 
75Amadee PelgrimMRowPro Rowers I 5451   1:50.1  262.4 
76Pete MarstonMMAD III 5449   1:50.1  262.2 
77Alan AgnewMRed Line Rowers I 5443   1:50.2  261.3 
78Andrew Van WykMGARAGEATHLETE III 5430   1:50.5  259.4 
79ESPRIT Noel StoddartmESPRIT I 5418   1:50.7  257.7 
80Barry Carew FMMFitness Matters IV 5408   1:50.9  256.3 
81Philip HardyMRed Line Rowers I 5408   1:50.9  256.3 
82James stapletonMIndependent I 5405   1:51.0  255.9 
83Richard CheesemanMSub 7 V 5405   1:51.0  255.9 
84ESPRIT PT TummonMESPRIT IV 5401   1:51.1  255.3 
85GrahamPMMAD III 5395   1:51.2  254.4 
86Nicolas Di Giugno GAmGARAGEATHLETE II 5393   1:51.3  254.2 
87TucksMTruro Goats I 5391   1:51.3  253.9 
88ESPRIT Matt FosterMESPRIT IV 5388   1:51.4  253.5 
89Matthew Parkinson S7MSub 7 V 5384   1:51.4  252.9 
90Jeroen PasmanMSub 7 V 5381   1:51.5  252.5 
91Mark GriffinMIsenhurst Rowers I 5379   1:51.5  252.2 
92Matt GillMSub 7 VI 5373   1:51.7  251.3 
93Stefan HubnerMErgo Ergo Sum I 5373   1:51.7  251.3 
94Paul PeppardMSub 7 VI 5366   1:51.8  250.4 
95ESPRIT Jon HardwickMESPRIT V 5365   1:51.8  250.2 
96Paul NuttallMFitness Matters IV 5361   1:51.9  249.7 
97Rick DuffieldMSub 7 VI 5360   1:51.9  249.5 
98Kevin James FMMFitness Matters IV 5357   1:52.0  249.1 
99Nick ThomasMErgo Ergo Sum I 5355   1:52.0  248.8 
100Henning SchnellMSub 7 VII 5353   1:52.1  248.5 
101Keith KeaveneyMIsenhurst Rowers I 5348   1:52.2  247.8 
102Bergur JensenmSub 7 I 5348   1:52.2  247.8 
103Gregory CookmTeam Oarsome I 5348   1:52.2  247.8 
104Joni DiackMSub 7 VII 5346   1:52.2  247.6 
105MartinB FFMForum Flyers I 5344   1:52.3  247.3 
106Steve IsaacsonmSub 7 II 5342   1:52.3  247.0 
107Patrick LouazelmSub 7 III 5340   1:52.4  246.7 
108Ryan lecrawMFitness Matters V 5334   1:52.5  245.9 
109Brian O Dubhchoin FMMFitness Matters V 5332   1:52.5  245.6 
110Kieran CahillmMAD IV 5331   1:52.5  245.5 
111ESPRIT Craig MumbymESPRIT II 5329   1:52.6  245.2 
112Bezza RLRmRed Line Rowers II 5328   1:52.6  245.1 
113ESPRIT Alex FrazaoMESPRIT V 5326   1:52.7  244.8 
114Tako LootsmaMFree Spirits I 5325   1:52.7  244.7 
115Henry Smith GAMGARAGEATHLETE III 5325   1:52.7  244.7 
116Adam EshbornmSub 7 IV 5324   1:52.7  244.5 
117John Pritchard FMMFitness Matters V 5317   1:52.8  243.6 
118Andy BurrowsMTeam Oarsome II 5314   1:52.9  243.2 
119aurelienusvMFIRT I 5311   1:53.0  242.7 
120Rowland Hills (RLR)MRed Line Rowers II 5308   1:53.0  242.3 
121Chris LeonardmFitness Matters II 5307   1:53.1  242.2 
122Ray Lowrie FMMFitness Matters VI 5307   1:53.1  242.2 
123Justin Mcelwain GAMGARAGEATHLETE IV 5305   1:53.1  241.9 
124Chris Bell S7MSub 7 VII 5304   1:53.1  241.8 
125Stan NwakaMTaff Attack Racing I 5302   1:53.2  241.5 
126George SMBW Rowing III 5299   1:53.2  241.1 
127hjsMForum Flyers I 5299   1:53.2  241.1 
128Felton HumbleMFree Spirits I 5295   1:53.3  240.6 
129Janos Suto S7MSub 7 VIII 5290   1:53.4  239.9 
130Ade Peel (TO)MTeam Oarsome III 5290   1:53.4  239.9 
131Nigel FarmerMForum Flyers II 5289   1:53.4  239.7 
132Glynn PowellMSub 7 VIII 5287   1:53.5  239.5 
133Leif HagenmRed Line Rowers II 5280   1:53.6  238.5 
134Bartosz D-ski FMMFitness Matters VI 5275   1:53.7  237.8 
135Marc Charman FMmFitness Matters III 5274   1:53.8  237.7 
136Little LouisMGee Crew I 5274   1:53.8  237.7 
137Steven RichieMSub 7 VIII 5270   1:53.9  237.2 
138Martin FFMForum Flyers II 5265   1:54.0  236.5 
139Craig douglassMSub 7 IX 5263   1:54.0  236.2 
140Matt RawlinsonMSub 7 IX 5261   1:54.0  235.9 
141Robert JonesMSub 7 IX 5257   1:54.1  235.4 
142Mike Pearce (MPx)MSub 7 X 5256   1:54.2  235.3 
143LAWalkerFBW Rowing I 5254   1:54.2  235.0 
144Russell ChewieMSub 7 X 5249   1:54.3  234.3 
145AshMTeam Oarsome III 5244   1:54.4  233.7 
146Dingeman WiertzmErgo Ergo Sum I 5244   1:54.4  233.7 
147Andy ParkesMGee Crew I 5241   1:54.5  233.3 
148Huw Beaty FMMFitness Matters VI 5240   1:54.5  233.1 
149Ed ComptonMSub 7 X 5240   1:54.5  233.1 
150ESPRIT Matt LukeMESPRIT V 5240   1:54.5  233.1 
151Dan LynchmSub 7 V 5239   1:54.5  233.0 
152Spencer Priestley FMMFitness Matters VII 5234   1:54.6  232.3 
153ESPRIT Al NisbetMESPRIT VI 5230   1:54.7  231.8 
154James ClarkeMFitness Matters VII 5229   1:54.7  231.7 
155Paul SandsMRed Line Rowers II 5228   1:54.8  231.5 
156C. SchanzeMSYC Rowing Crew I 5225   1:54.8  231.1 
157ESPRIT Dale PickeringMESPRIT VI 5223   1:54.9  230.9 
158ClaudiusmFree Spirits I 5223   1:54.9  230.9 
159LoopingmFIRT I 5212   1:55.1  229.4 
160Matthew Godwin FMMFitness Matters VII 5206   1:55.3  228.6 
161Roger RogneMFitness Matters VIII 5206   1:55.3  228.6 
162Dave Barber INDMIndependent I 5195   1:55.5  227.2 
163patrice CORNUTmFIRT I 5188   1:55.7  226.3 
164Dave ChmilowskyjMTeam Oarsome III 5187   1:55.7  226.1 
165M D MItchellMErg365 I 5186   1:55.7  226.0 
166Gary LewisMSub 7 XI 5171   1:56.0  224.0 
167PongiMFitness Matters VIII 5161   1:56.3  222.7 
168Kay BieriMC2TweetCrew I 5159   1:56.3  222.5 
169Rod.ChinnmSub 7 VI 5153   1:56.4  221.7 
170Glyn LloydmSub 7 VII 5153   1:56.4  221.7 
171ESPRIT Katy TalbotFESPRIT I 5151   1:56.5  221.5 
172Anthony BarbierMSub 7 XI 5147   1:56.6  220.9 
173Richard YoungMEmpty the Tanks I 5141   1:56.7  220.2 
174Paul Bryson (TS)M Once We Were Tribesports I 5140   1:56.7  220.0 
175LindsayhMForum Flyers II 5138   1:56.8  219.8 
176Roger Johansen FMMFitness Matters VIII 5137   1:56.8  219.7 
177Steve SmithMFree Spirits I 5135   1:56.8  219.4 
178Blanksby skiMSki Erg I 5130   1:57.0  218.8 
179gregsmith01748MFree Spirits II 5129   1:57.0  218.6 
180Larry TaitMTeam Oarsome IV 5121   1:57.2  217.6 
181Ian BeemFree Spirits II 5117   1:57.3  217.1 
182Anton Richter-VissermRed Line Rowers III 5116   1:57.3  217.0 
183Andy ColeMGee Crew I 5115   1:57.3  216.8 
184Hal Appleyard01MSub 7 XI 5114   1:57.3  216.7 
185David LewisMSub 7 XII 5113   1:57.3  216.6 
186Jorn FarmenMRed Line Rowers III 5112   1:57.4  216.5 
187Anna MuehleFSub 7 I 5111   1:57.4  216.3 
188Stephen Perkins FMMFitness Matters IX 5106   1:57.5  215.7 
189FSR Ralf AchenbachMFree Spirits II 5106   1:57.5  215.7 
190Ivan VukovicMForum Flyers III 5104   1:57.6  215.4 
191Dave GillibrandMSub 7 XII 5102   1:57.6  215.2 
192bensid71MFIRT II 5102   1:57.6  215.2 
193Geoff BoucherMSub 7 XII 5100   1:57.6  214.9 
194Casey Clarke SkiErgMSki Erg I 5092   1:57.8  213.9 
195Matt ElymIsenhurst Rowers I 5091   1:57.9  213.8 
196Gregory HochTOMTeam Oarsome IV 5091   1:57.9  213.8 
197Andrew PhilipmFitness Matters IV 5083   1:58.0  212.8 
198ESPRIT Rochelle QuigleyFESPRIT II 5082   1:58.1  212.7 
199FerdlMPaddy Power I 5079   1:58.1  212.3 
200Floret. JMFIRT II 5079   1:58.1  212.3 
201js.klskimSki Erg I 5078   1:58.2  212.2 
202fkoeneMFree Spirits II 5077   1:58.2  212.0 
203Jean-Pierre GORINmFIRT II 5076   1:58.2  211.9 
204Derek bolandmSub 7 VIII 5074   1:58.2  211.7 
205FlorianOMFitness Matters IX 5072   1:58.3  211.4 
206Kevin HillmanMEmpty the Tanks I 5070   1:58.3  211.2 
207StJohn FordM Once We Were Tribesports I 5061   1:58.6  210.1 
208Justine RestonfMAD I 5059   1:58.6  209.8 
209Allan HallbergMForum Flyers III 5055   1:58.7  209.3 
210Paul_TimmonsmPaddy Power I 5053   1:58.7  209.1 
211Alfred OkellomSub 7 IX 5051   1:58.8  208.8 
212LIAM PDB WALSHmTRAIN Manchester I 5051   1:58.8  208.8 
213Andy PatienceMSub 7 XIII 5050   1:58.8  208.7 
214Tim ReidMFitness Matters IX 5049   1:58.8  208.6 
215Philip RoeselmTeam Oarsome II 5046   1:58.9  208.2 
216Paul JohnsonmFree Spirits III 5046   1:58.9  208.2 
217Ray LenMSub 7 XIII 5041   1:59.0  207.6 
218Ian BarnesMIndependent I 5041   1:59.0  207.6 
219Charlotte PiggFMAD II 5039   1:59.1  207.3 
220Marcus Schug FMMFitness Matters X 5039   1:59.1  207.3 
221Tracy Watkins RLRFRed Line Rowers I 5037   1:59.1  207.1 
222Tony McKenna.mFitness Matters V 5036   1:59.1  207.0 
223Paul White (RLR)mRed Line Rowers III 5034   1:59.2  206.7 
224Mike ShillabeerMIsenhurst Rowers I 5033   1:59.2  206.6 
225Amie MacejkovicFGARAGEATHLETE I 5032   1:59.2  206.5 
226Sion Evans FMMFitness Matters X 5028   1:59.3  206.0 
227Karl DieterMSub 7 XIII 5027   1:59.4  205.8 
228Graham HutchingsMRed Line Rowers III 5027   1:59.4  205.8 
229ESPRIT Eddie EdwardsMESPRIT VI 5026   1:59.4  205.7 
230LiefcatMFree Spirits III 5026   1:59.4  205.7 
231Will HaskellmForum Flyers I 5026   1:59.4  205.7 
232Adam SeymourMDLC Gidea Park I 5024   1:59.4  205.5 
233David SpeedMTeam Oarsome IV 5023   1:59.5  205.4 
234davidmarksMPaddy Power II 5018   1:59.6  204.7 
235ESPRIT Bill SchmidtmESPRIT III 5018   1:59.6  204.7 
236Frank NoorlanderMForum Flyers III 5016   1:59.6  204.5 
237Will BlanfordMIsenhurst Rowers II 5014   1:59.7  204.3 
238Dominic GriersonMSub 7 XIV 5014   1:59.7  204.3 
239Gabriele Tarsia IncuriaMBW Rowing III 5005   1:59.9  203.2 
240MaxMacLaren1MFree Spirits III 5004   1:59.9  203.0 
241Terry TurnermFitness Matters VI 5004   1:59.9  203.0 
242Mike AshtonMRed Line Rowers IV 5003   1:59.9  202.9 
243Richard MilnermRed Line Rowers IV 5002   2:00.0  202.8 
244jacketMForum Flyers IV 5001   2:00.0  202.7 
245ESPRIT Kerry SharplesFESPRIT III 4996   2:00.1  202.1 
246Ian NorthcottMSub 7 XIV 4989   2:00.3  201.2 
247Bjarne_DKMAIRC I 4988   2:00.3  201.1 
248Gary SmithmIsenhurst Rowers II 4980   2:00.5  200.1 
249Nolan Thomas MessermSub 7 X 4980   2:00.5  200.1 
250Ellie PeebsFMAD III 4975   2:00.6  199.5 
251Mark DickinsonMFitness Matters X 4966   2:00.8  198.4 
252Roger TiveyMIsenhurst Rowers II 4962   2:00.9  198.0 
253GeorgeBinghamRLRMRed Line Rowers IV 4961   2:00.9  197.8 
254OranjmIndependent I 4960   2:01.0  197.7 
255Gert Hansen SkiMSki Erg I 4950   2:01.2  196.5 
256andrewcrystalMForum Flyers IV 4949   2:01.2  196.4 
257Kia TaylorFGARAGEATHLETE II 4943   2:01.4  195.7 
258Robert DykemIndependent II 4943   2:01.4  195.7 
259KenzomErgo Ergo Sum I 4940   2:01.5  195.3 
260James Thornton SkiErgMSki Erg II 4936   2:01.6  194.9 
261Richard CameronMSub 7 XIV 4936   2:01.6  194.9 
262Davidski BarberskiMSki Erg II 4925   2:01.8  193.6 
263Shelagh tubbyFRed Line Rowers II 4923   2:01.9  193.3 
264macrothskiMSki Erg II 4923   2:01.9  193.3 
265Jef 76k+MSub 7 XV 4923   2:01.9  193.3 
266Jon P TaylormFree Spirits III 4918   2:02.0  192.7 
267Nigel BrocktonmSub 7 XI 4915   2:02.1  192.4 
268Chewie Russell SkiErgMSki Erg III 4911   2:02.2  191.9 
269Janette LoweFTeam Oarsome I 4910   2:02.2  191.8 
270Harry HellammFitness Matters VII 4910   2:02.2  191.8 
271lee robinsonMErg365 I 4909   2:02.2  191.7 
272Richard SteventonMSub 7 XV 4905   2:02.3  191.2 
273FM Bob SummonsMFitness Matters XI 4902   2:02.4  190.9 
274Marcus SherwoodMIndependent II 4902   2:02.4  190.9 
275Sammie StuartFSub 7 II 4900   2:02.4  190.6 
276Steve OckerbyMForum Flyers IV 4898   2:02.5  190.4 
277ESPRIT Rachel HarrisFESPRIT IV 4896   2:02.5  190.2 
278Craig HudsonMIndependent II 4890   2:02.7  189.5 
279Jon GoodallMMAD IV 4888   2:02.7  189.2 
280Mike PfirrmanMSub 7 XV 4887   2:02.8  189.1 
281FREELANCE MN NASI PIERGIORGIOmROWING CLUB MANTOVA I 4885   2:02.8  188.9 
282AndersP_SweMAIRC I 4884   2:02.9  188.8 
283FREELANCE MN AD TURZI EROSmROWING CLUB MANTOVA I 4883   2:02.9  188.7 
284david FROC -AIPmFIRT II 4882   2:02.9  188.5 
285Jonathan Turns ETTMEmpty the Tanks I 4880   2:03.0  188.3 
286Bill WakeleymRowPro Rowers I 4879   2:03.0  188.2 
287Kamile MatFErgo Ergo Sum I 4879   2:03.0  188.2 
288Eddie McSharryMSub 7 XVI 4875   2:03.1  187.7 
289Matt NewmanmTeam Oarsome III 4873   2:03.1  187.5 
290Simon_EngMAIRC I 4869   2:03.2  187.0 
291ESPRIT Paul ButterworthMESPRIT VII 4867   2:03.3  186.8 
292Mike BrownjohnmDLC Gidea Park I 4859   2:03.5  185.9 
293Harry_ScoMAIRC II 4851   2:03.7  185.0 
294ESPRIT Charlotte RooneyFESPRIT V 4847   2:03.8  184.5 
295P McNeilMDLC Gidea Park I 4840   2:04.0  183.7 
296Terry FFmForum Flyers II 4835   2:04.1  183.1 
297Val CraftFRed Line Rowers III 4829   2:04.2  182.5 
298David PlumbmFree Spirits IV 4827   2:04.3  182.2 
299James LoweMFitness Matters XI 4827   2:04.3  182.2 
300Joe A KeatingmPaddy Power II 4827   2:04.3  182.2 
301Steve SelwoodMTaff Attack I 4821   2:04.5  181.6 
302Peter JonesMGee Crew II 4820   2:04.5  181.4 
303Robin LancefieldMFitness Matters XI 4816   2:04.6  181.0 
304Sarita Kristina HansenfSub 7 III 4816   2:04.6  181.0 
305Cemlyn JonesMFitness Matters XII 4811   2:04.7  180.4 
306steeve DANDREYMFIRT III 4811   2:04.7  180.4 
307Malin FaraasenFFitness Matters I 4806   2:04.8  179.9 
308Amy PowellFErgo Ergo Sum II 4801   2:05.0  179.3 
309ESPRIT Sarah GibbsfESPRIT IV 4798   2:05.1  179.0 
310Lesley Wright GAFGARAGEATHLETE III 4794   2:05.2  178.5 
311herve pruneaumFIRT III 4791   2:05.2  178.2 
312Andy Barwell FMMFitness Matters XII 4782   2:05.5  177.2 
313James DavismSub 7 XII 4780   2:05.5  177.0 
314AdeleeFErgo Ergo Sum II 4780   2:05.5  177.0 
315meurice robinson RLRmRed Line Rowers IV 4768   2:05.8  175.6 
316Eric JonesMSub 7 XVI 4766   2:05.9  175.4 
317Sylverado987MFIRT III 4764   2:05.9  175.2 
318RLR_Andrew_JonesMRed Line Rowers V 4760   2:06.1  174.8 
319ESPRIT Jim AaronMESPRIT VII 4757   2:06.1  174.4 
320Dawn ZalasFTeam Oarsome II 4749   2:06.3  173.5 
321Arkadiusz KieliszekmSub 7 XIII 4743   2:06.5  172.9 
322Carol WoodwardfSub 7 IV 4740   2:06.6  172.6 
323Angus WoodhamsMIsenhurst Rowers II 4738   2:06.6  172.3 
324ESPRIT Jarrett MooreMESPRIT VII 4731   2:06.8  171.6 
325Nikki WestFGee Crew I 4724   2:07.0  170.8 
326Michelle Evans GAFGARAGEATHLETE IV 4714   2:07.3  169.7 
327FunkyrowerMGee Crew II 4706   2:07.5  168.9 
328Gur RotkopmSub 7 XIV 4706   2:07.5  168.9 
329laetitia delelisFFIRT I 4706   2:07.5  168.9 
330Thomas MillardMErg365 I 4703   2:07.6  168.6 
331Andy FlewettMGee Crew II 4702   2:07.6  168.4 
332Belinda TraceyFErgo Ergo Sum II 4700   2:07.7  168.2 
333Katie StonerFRed Line Rowers IV 4694   2:07.8  167.6 
334FREELANCE BG LANZONI SfCUS Bergamo I 4694   2:07.8  167.6 
335Lou A ElkingtonfTeam Oarsome III 4692   2:07.9  167.4 
336Jules Hodgson S7FSub 7 V 4688   2:08.0  166.9 
337Kevin PappinMGee Crew III 4688   2:08.0  166.9 
338Alan ChampionmSub 7 XV 4678   2:08.3  165.9 
339Stephen GowerMRowPro Rowers II 4676   2:08.3  165.7 
340Lestrade Th.mFIRT III 4676   2:08.3  165.7 
341Samantha DoubtfireFSub 7 VI 4668   2:08.5  164.8 
342Alan Strang (TS)m Once We Were Tribesports I 4656   2:08.9  163.6 
343MarjorieFSub 7 VII 4655   2:08.9  163.4 
344Sue ElleryFIsenhurst Rowers I 4649   2:09.1  162.8 
345Fiona JamieFSub 7 VIII 4646   2:09.1  162.5 
346Chris WhaleMForum Flyers V 4642   2:09.3  162.1 
347Keith BaxterMRed Line Rowers V 4611   2:10.1  158.9 
348Ian HodgeMSub 7 XVI 4609   2:10.2  158.6 
349Anna MielnikFFitness Matters II 4604   2:10.3  158.1 
350Rob B_UKMAIRC II 4602   2:10.4  157.9 
351Vicki BaldwinFSub 7 IX 4597   2:10.5  157.4 
352Steve MotznyMAge Without Limits I 4594   2:10.6  157.1 
353Tony LorrimermGee Crew I 4591   2:10.7  156.8 
354Natalie TrebilcockFGee Crew II 4590   2:10.7  156.7 
355Evie EvisonFGee Crew III 4582   2:10.9  155.9 
356Paul GouldMFree Spirits IV 4576   2:11.1  155.3 
357Clare RainbowfSub 7 X 4570   2:11.3  154.7 
358ClaireFMFFitness Matters III 4569   2:11.3  154.6 
359Hannah WrightfTruro Goats I 4562   2:11.5  153.8 
360Matt MorenMFitness Matters XII 4547   2:12.0  152.3 
361ESPRIT Victoria TaylorFESPRIT VI 4537   2:12.2  151.3 
362Mark RhineMRed Line Rowers V 4536   2:12.3  151.2 
363Tassana LandyfSub 7 XI 4528   2:12.5  150.4 
364ESPRIT Alexandra KozerafESPRIT V 4528   2:12.5  150.4 
365John StockMForum Flyers V 4527   2:12.5  150.3 
366Marta SFFree Spirits I 4521   2:12.7  149.7 
367Ruud JackelMRowPro Rowers II 4517   2:12.8  149.3 
368Rina DunnFRed Line Rowers V 4512   2:13.0  148.8 
369Bluebell31FSub 7 XII 4511   2:13.0  148.7 
370Dave Moores (FF)MForum Flyers V 4508   2:13.1  148.4 
371Al Nisbet SkiMSki Erg III 4502   2:13.3  147.9 
372Zoe OsborneFIsenhurst Rowers II 4502   2:13.3  147.9 
373ESPRIT Cristiane HorstFESPRIT VII 4501   2:13.3  147.8 
374Anna HoggFRed Line Rowers VI 4492   2:13.6  146.9 
375Barbara HFFree Spirits II 4483   2:13.8  146.0 
376Little HfTeam Oarsome IV 4476   2:14.0  145.3 
377Jessica JanzenFRowPro Rowers I 4470   2:14.2  144.7 
378Kelly SapsfordfMAD IV 4464   2:14.4  144.1 
379Graham WoodleyMForum Flyers VI 4460   2:14.5  143.8 
380Arlene Wade (TO)fTeam Oarsome IV 4452   2:14.8  143.0 
381Debbie BarberFForum Flyers I 4436   2:15.3  141.4 
382FREELANCE MN AD MILENO LUCIAfROWING CLUB MANTOVA I 4421   2:15.7  140.0 
383ObeseManRowingM#TokyRow I 4414   2:15.9  139.4 
384FREELANCE MN CASALI NICOLETTAfROWING CLUB MANTOVA I 4414   2:15.9  139.4 
385WazzaMSub 7 XVII 4411   2:16.0  139.1 
386Rachael Griffin FMFFitness Matters IV 4398   2:16.4  137.8 
387Charlotte WaggottFIsenhurst Rowers III 4387   2:16.8  136.8 
388Sarah BenkoFPaddy Power I 4380   2:17.0  136.2 
389Annette WammenfRowPro Rowers II 4375   2:17.1  135.7 
390Rob DrurymEmpty the Tanks I 4371   2:17.3  135.3 
391Jackie HicksFIndependent I 4371   2:17.3  135.3 
392Petra HudsonFIsenhurst Rowers III 4364   2:17.5  134.7 
393Annabel FearnleyfRowPro Rowers II 4357   2:17.7  134.0 
394Chloe SmithfFree Spirits III 4344   2:18.1  132.8 
395ALFergusonfRed Line Rowers V 4337   2:18.3  132.2 
396Roger CruttendenMGee Crew III 4315   2:19.0  130.2 
397Peter TullettmFree Spirits IV 4300   2:19.5  128.8 
398Janice MarstonFMAD IV 4292   2:19.8  128.1 
399Ian NimmomGee Crew II 4284   2:20.1  127.4 
400alan wisniewskiMFree Spirits IV 4279   2:20.2  127.0 
401Philip PricemFree Spirits V 4276   2:20.3  126.7 
402Steph JoyceFSub 7 XIII 4269   2:20.5  126.1 
403clareburrellfFree Spirits IV 4265   2:20.7  125.7 
404Graham StorymTeam Oarsome V 4251   2:21.1  124.5 
405Tom HaigMGee Crew III 4251   2:21.1  124.5 
406Polytechnique Mauricio LMFIRT IV 4226   2:22.0  122.3 
407Rita RisleyfGee Crew III 4225   2:22.0  122.2 
408Russel CampbellMRowPro Rowers II 4219   2:22.2  121.7 
409Janet LawtonFFree Spirits V 4206   2:22.7  120.6 
410ESPRIT Paula BattrickFESPRIT VIII 4198   2:22.9  119.9 
411Ange LCFFree Spirits V 4197   2:23.0  119.8 
412Candida Bf Once We Were Tribesports I 4177   2:23.6  118.1 
413Tokyo RoseF#TokyRow I 4174   2:23.7  117.8 
414Sarah Taylor (H)FSub 7 XIV 4158   2:24.3  116.5 
415Samantha Doubtfire SkiFSki Erg I 4130   2:25.3  114.1 
416Carol AtwoodFForum Flyers II 4118   2:25.7  113.2 
417Amon SUB7 SKI ERGfSki Erg II 4110   2:26.0  112.5 
418Brit HaugsengFFree Spirits V 4098   2:26.4  111.5 
419Tracy Watkins SkiFSki Erg II 4081   2:27.0  110.1 
420Fleur BlanfordfIsenhurst Rowers III 4073   2:27.3  109.5 
421FREELANCE MN BARUFFALDI TIZIANAfROWING CLUB MANTOVA I 4063   2:27.7  108.7 
422FREELANCE MN AD CHIABERGE GIORGIOMROWING CLUB MANTOVA II 4061   2:27.7  108.5 
423Susan Young LWTfSub 7 XV 4056   2:27.9  108.1 
424Carol AlkerfFitness Matters V 4014   2:29.5  104.8 
425Past ItMGee Crew IV 3987   2:30.5  102.7 
426Damian BakerM Once We Were Tribesports I 3963   2:31.4  100.9 
427Livia FfFitness Matters VI 3935   2:32.5  98.7 
428Liz GentFSki Erg III 3920   2:33.1  97.6 
429Diane Hunt RLRFRed Line Rowers VI 3893   2:34.1  95.6 
430Roger BurrellmFree Spirits V 3886   2:34.4  95.1 
431Polytechnique Andi SfFIRT II 3871   2:35.0  94.0 
432Margaret Botterill (Mrs B)fForum Flyers III 3844   2:36.1  92.0 
433Sharky JacawayFFree Spirits VI 3793   2:38.2  88.4 
434Gaynor JohnsonFRed Line Rowers VI 3764   2:39.4  86.4 
435Kathleen CampbellFFitness Matters VII 3588   2:47.2  74.8 
436Kay HughesFTeam Oarsome V 3527   2:50.1  71.1 
437Shelagh AllenFSub 7 XVI 3500   2:51.4  69.5 
438Abi Dolor S7fSub 7 XVI 3416   2:55.6  64.6 
439Polytechnique Dora RFFIRT III 3403   2:56.3  63.9 
440Polytechnique Augustin BmFIRT IV 3381   2:57.5  62.6 
441HjsSkiMSki Erg III 3321   3:00.7  59.4 
442Polytechnique Gökçe AFFIRT IV 3310   3:01.3  58.8 
443Alfiski LittleskimSki Erg III 2766   3:36.9  34.3 
444Polytechnique Ching-Yu LmFIRT IV 2457   4:04.2  24.0 
445WrightymTruro Goats I 10  16:40:00.0  0.0 
446David GillibrandMSub 7 XVII 1  166:40:00.0  0.0 
1
68 pts
MAD I 5657.4m
Graham Benton (H)
Olli Zeidler (H)
Ertan (H)
Tim Male (L)
Justine Reston (F)
2
67 pts
GARAGEATHLETE I 5621m
Justin Farina (H)
Stephen Newberry (H)
Green_GA (H)
Yannick Herat (L)
Amie Macejkovic (F)
3
66 pts
ESPRIT I 5620.2m
ESPRIT - Oli Gray (H)
ESPRIT Jarek Olszowka (H)
ESPRIT Derek Peterson (H)
ESPRIT Noel Stoddart (L)
ESPRIT Katy Talbot (F)
4
65 pts
BW Rowing I 5590.2m
Ivan Saric (H)
Moritz BOCK (H)
Max Schramm (H)
Valentin Schätzlein (L)
LAWalker (F)
5
64 pts
MAD II 5562.4m
Sam Chinery (H)
Simon Jones (H)
j.d (H)
Mark Mitchell (L)
Charlotte Pigg (F)
6
63 pts
ESPRIT II 5535.2m
ESPRIT Dan Gorenkin (H)
ESPRIT Nick Blount (H)
ESPRIT Andy Tomlinson (H)
ESPRIT Craig Mumby (L)
ESPRIT Rochelle Quigley (F)
7
62 pts
Sub 7 I 5530.6m
Chandler S (H)
Marius TS (H)
Warren Matthews (H)
Bergur Jensen (L)
Anna Muehle (F)
8
61 pts
Team Oarsome I 5521.4m
James Saxton (H)
Thomas D Jackman (H)
PR_SAV (H)
Gregory Cook (L)
Janette Lowe (F)
9
60 pts
Fitness Matters I 5513.8m
Adam Harriman FM (H)
Tobias Stohr FM (H)
Andrew priston (H)
Simon Amery FM (L)
Malin Faraasen (F)
10
59 pts
GARAGEATHLETE II 5435.6m
Matt Zalewski GA (H)
SeanS GA (H)
Mark Rozewicz GA (H)
Nicolas Di Giugno GA (L)
Kia Taylor (F)
11
58 pts
Sub 7 II 5403.6m
Ian Wilde (H)
Mat Ward S7 (H)
Stewart Moss (H)
Steve Isaacson (L)
Sammie Stuart (F)
12
57 pts
Red Line Rowers I 5396.2m
Michael Anderson (H)
Alan Agnew (H)
Philip Hardy (H)
Keith Darby (L)
Tracy Watkins RLR (F)
13
56 pts
MAD III 5379.4m
Roy Jones (H)
Pete Marston (H)
GrahamP (H)
Moritz Marchart (L)
Ellie Peebs (F)
14
55 pts
Fitness Matters II 5369.2m
Allan Ridler (H)
Jack Montgomery (H)
Sam Blythe (H)
Chris Leonard (L)
Anna Mielnik (F)
15
54 pts
Sub 7 III 5343.8m
Alex Doidge (H)
Harry Wilkes (H)
Andy Reid Sub 7 (H)
Patrick Louazel (L)
Sarita Kristina Hansen (F)
16
53 pts
ESPRIT III 5334.2m
ESPRIT David Rackstraw (H)
ESPRIT Stuart Elvin (H)
ESPRIT Louis Kirchell (H)
ESPRIT Bill Schmidt (L)
ESPRIT Kerry Sharples (F)
17
52 pts
Fitness Matters III 5293.6m
BlanksbyFM (H)
Tim Garratt FM (H)
Pawel Matenko (H)
Marc Charman FM (L)
ClaireFM (F)
18
51 pts
Sub 7 IV 5291m
Victor Padee (H)
Matty West (H)
Casey Clarke (H)
Adam Eshborn (L)
Carol Woodward (F)
19
50 pts
RowPro Rowers I 5242.2m
Stewart Wyllie (H)
Damien Martin (H)
Amadee Pelgrim (H)
Bill Wakeley (L)
Jessica Janzen (F)
20
49 pts
Team Oarsome II 5221.6m
Edward Carpenter (H)
Peter Clowes (H)
Andy Burrows (H)
Philip Roesel (L)
Dawn Zalas (F)
21
48 pts
Paddy Power I 5220.2m
Andy Benko (H)
AAPaul Buchanan (H)
Ferdl (H)
Paul_Timmons (L)
Sarah Benko (F)
22
47 pts
Sub 7 V 5219.4m
Richard Cheeseman (H)
Matthew Parkinson S7 (H)
Jeroen Pasman (H)
Dan Lynch (L)
Jules Hodgson S7 (F)
23
46 pts
Red Line Rowers II 5213.4m
Rowland Hills (RLR) (H)
Paul Sands (H)
Bezza RLR (L)
Leif Hagen (L)
Shelagh tubby (F)
24
45 pts
ESPRIT IV 5187m
ESPRIT Julian Warrick (H)
ESPRIT PT Tummon (H)
ESPRIT Matt Foster (H)
ESPRIT Sarah Gibbs (L)
ESPRIT Rachel Harris (F)
25
44 pts
Sub 7 VI 5184m
Matt Gill (H)
Paul Peppard (H)
Rick Duffield (H)
Rod.Chinn (L)
Samantha Doubtfire (F)
26
43 pts
FIRT I 5176m
aurelienusv (H)
js.kls (L)
Looping (L)
patrice CORNUT (L)
laetitia delelis (F)
27
42 pts
Sub 7 VII 5162.2m
Henning Schnell (H)
Joni Diack (H)
Chris Bell S7 (H)
Glyn Lloyd (L)
Marjorie (F)
28
41 pts
Ergo Ergo Sum I 5158.2m
Stefan Hubner (H)
Nick Thomas (H)
Dingeman Wiertz (L)
Kenzo (L)
Kamile Mat (F)
29
40 pts
Forum Flyers I 5123.2m
macroth (H)
MartinB FF (H)
hjs (H)
Will Haskell (L)
Debbie Barber (F)
30
39 pts
Fitness Matters IV 5121.4m
Barry Carew FM (H)
Paul Nuttall (H)
Kevin James FM (H)
Andrew Philip (L)
Rachael Griffin FM (F)
31
38 pts
Sub 7 VIII 5113.4m
Janos Suto S7 (H)
Glynn Powell (H)
Steven Richie (H)
Derek boland (L)
Fiona Jamie (F)
32
37 pts
Isenhurst Rowers I 5100m
Mark Griffin (H)
Keith Keaveney (H)
Mike Shillabeer (H)
Matt Ely (L)
Sue Ellery (F)
33
36 pts
Free Spirits I 5099.8m
Tako Lootsma (H)
Felton Humble (H)
Steve Smith (H)
Claudius (L)
Marta S (F)
34
35 pts
Sub 7 IX 5085.8m
Craig douglass (H)
Matt Rawlinson (H)
Robert Jones (H)
Alfred Okello (L)
Vicki Baldwin (F)
35
34 pts
ESPRIT V 5061.2m
ESPRIT Jon Hardwick (H)
ESPRIT Alex Frazao (H)
ESPRIT Matt Luke (H)
ESPRIT Alexandra Kozera (L)
ESPRIT Charlotte Rooney (F)
36
33 pts
Sub 7 X 5059m
Mike Pearce (MPx) (H)
Russell Chewie (H)
Ed Compton (H)
Nolan Thomas Messer (L)
Clare Rainbow (F)
37
32 pts
Team Oarsome III 5057.2m
Ade Peel (TO) (H)
Ash (H)
Dave Chmilowskyj (H)
Matt Newman (L)
Lou A Elkington (F)
38
31 pts
Red Line Rowers III 5023.6m
Jorn Farmen (H)
Graham Hutchings (H)
Anton Richter-Visser (L)
Paul White (RLR) (L)
Val Craft (F)
39
30 pts
Fitness Matters V 5006.6m
Ryan lecraw (H)
Brian O Dubhchoin FM (H)
John Pritchard FM (H)
Tony McKenna. (L)
Carol Alker (F)
40
29 pts
Independent I 4994.4m
James stapleton (H)
Dave Barber IND (H)
Ian Barnes (H)
Oranj (L)
Jackie Hicks (F)
41
28 pts
Gee Crew I 4989m
Little Louis (H)
Andy Parkes (H)
Andy Cole (H)
Tony Lorrimer (L)
Nikki West (F)
42
27 pts
Free Spirits II 4982.4m
gregsmith01748 (H)
FSR Ralf Achenbach (H)
fkoene (H)
Ian Bee (L)
Barbara H (F)
43
26 pts
Sub 7 XI 4975m
Gary Lewis (H)
Anthony Barbier (H)
Hal Appleyard01 (H)
Nigel Brockton (L)
Tassana Landy (F)
44
25 pts
Fitness Matters VI 4952.2m
Ray Lowrie FM (H)
Bartosz D-ski FM (H)
Huw Beaty FM (H)
Terry Turner (L)
Livia F (F)
45
24 pts
Forum Flyers II 4929m
Nigel Farmer (H)
Martin FF (H)
Lindsayh (H)
Terry FF (L)
Carol Atwood (F)
46
23 pts
Sub 7 XII 4921.2m
David Lewis (H)
Dave Gillibrand (H)
Geoff Boucher (H)
James Davis (L)
Bluebell31 (F)
47
22 pts
Red Line Rowers IV 4885.6m
Mike Ashton (H)
GeorgeBinghamRLR (H)
Richard Milner (L)
meurice robinson RLR (L)
Katie Stoner (F)
48
21 pts
Ski Erg I 4876m
Blanksby ski (H)
Casey Clarke SkiErg (H)
Gert Hansen Ski (H)
js.klski (L)
Samantha Doubtfire Ski (F)
49
20 pts
Free Spirits III 4867.6m
Liefcat (H)
MaxMacLaren1 (H)
Paul Johnson (L)
Jon P Taylor (L)
Chloe Smith (F)
50
19 pts
Isenhurst Rowers II 4839.2m
Will Blanford (H)
Roger Tivey (H)
Angus Woodhams (H)
Gary Smith (L)
Zoe Osborne (F)
51
18 pts
Fitness Matters VII 4833.4m
Spencer Priestley FM (H)
James Clarke (H)
Matthew Godwin FM (H)
Harry Hellam (L)
Kathleen Campbell (F)
52
17 pts
Team Oarsome IV 4832.6m
Larry Tait (H)
Gregory HochTO (H)
David Speed (H)
Little H (L)
Arlene Wade (TO) (F)
53
16 pts
Sub 7 XIII 4826m
Andy Patience (H)
Ray Len (H)
Karl Dieter (H)
Arkadiusz Kieliszek (L)
Steph Joyce (F)
54
15 pts
FIRT II 4802m
bensid71 (H)
Floret. J (H)
Jean-Pierre GORIN (L)
david FROC -AIP (L)
Polytechnique Andi S (F)
55
14 pts
Sub 7 XIV 4760.6m
Dominic Grierson (H)
Ian Northcott (H)
Richard Cameron (H)
Gur Rotkop (L)
Sarah Taylor (H) (F)
56
13 pts
Sub 7 XV 4689.8m
Jef 76k+ (H)
Richard Steventon (H)
Mike Pfirrman (H)
Alan Champion (L)
Susan Young LWT (F)
57
12 pts
Gee Crew II 4620.4m
Peter Jones (H)
Funkyrower (H)
Andy Flewett (H)
Ian Nimmo (L)
Natalie Trebilcock (F)
58
11 pts
Once We Were Tribesports I 4599.4m
Paul Bryson (TS) (H)
StJohn Ford (H)
Damian Baker (H)
Alan Strang (TS) (L)
Candida B (F)
59
10 pts
Ski Erg II 4595m
James Thornton SkiErg (H)
Davidski Barberski (H)
macrothski (H)
Amon SUB7 SKI ERG (L)
Tracy Watkins Ski (F)
60
9 pts
Red Line Rowers V 4551.2m
RLR_Andrew_Jones (H)
Keith Baxter (H)
Mark Rhine (H)
ALFerguson (L)
Rina Dunn (F)
61
8 pts
ROWING CLUB MANTOVA I 4533.2m
FREELANCE MN NASI PIERGIORGIO (L)
FREELANCE MN AD TURZI EROS (L)
FREELANCE MN CASALI NICOLETTA (L)
FREELANCE MN BARUFFALDI TIZIANA (L)
FREELANCE MN AD MILENO LUCIA (F)
62
7 pts
FIRT III 4489m
steeve DANDREY (H)
Sylverado987 (H)
herve pruneau (L)
Lestrade Th. (L)
Polytechnique Dora R (F)
63
6 pts
Free Spirits IV 4449.4m
Paul Gould (H)
alan wisniewski (H)
David Plumb (L)
Peter Tullett (L)
clareburrell (F)
64
5 pts
RowPro Rowers II 4428.8m
Stephen Gower (H)
Ruud Jackel (H)
Russel Campbell (H)
Annette Wammen (L)
Annabel Fearnley (F)
65
4 pts
Gee Crew III 4412.2m
Kevin Pappin (H)
Roger Cruttenden (H)
Tom Haig (H)
Rita Risley (L)
Evie Evison (F)
66
3 pts
Sub 7 XVI 4233.2m
Eddie McSharry (H)
Eric Jones (H)
Ian Hodge (H)
Abi Dolor S7 (L)
Shelagh Allen (F)
67
2 pts
Free Spirits V 4132.6m
Philip Price (L)
Roger Burrell (L)
Janet Lawton (F)
Ange LC (F)
Brit Haugseng (F)
68
1 pt
Ski Erg III 3884m
Chewie Russell SkiErg (H)
Al Nisbet Ski (H)
HjsSki (H)
Alfiski Littleski (L)
Liz Gent (F)
69BW Rowing II5571.3m
Matthias Borghorst (H)
Clemens B (H)
Felix Pfeiffer (H)
 
70Cornish Gig Rowers IRC I5563m
Jamie Sanders (H)
Andrew King (H)
 
71Taff Attack Racing I5302m
Stan Nwaka (H)
 
72TRAIN Manchester I5270.5m
Dean Harris (H)
LIAM PDB WALSH (L)
 
73GARAGEATHLETE III5260.7m
Kevin Doherty (H)
Andrew Van Wyk (H)
Henry Smith GA (H)
Lesley Wright GA (F)
74SYC Rowing Crew I5225m
C. Schanze (H)
 
75Fitness Matters VIII5168m
Roger Rogne (H)
Pongi (H)
Roger Johansen FM (H)
 
76C2TweetCrew I5159m
Kay Bieri (H)
 
77BW Rowing III5152m
George S (H)
Gabriele Tarsia Incuria (H)
 
78Fitness Matters IX5075.6m
Stephen Perkins FM (H)
FlorianO (H)
Tim Reid (H)
 
79DLC Gidea Park I5044.5m
Jon Melson (H)
Adam Seymour (H)
P McNeil (H)
Mike Brownjohn (L)
80Fitness Matters X5011m
Marcus Schug FM (H)
Sion Evans FM (H)
Mark Dickinson (H)
 
81GARAGEATHLETE IV5009.5m
Justin Mcelwain GA (H)
Michelle Evans GA (F)
 
82ESPRIT VI5004m
ESPRIT Al Nisbet (H)
ESPRIT Dale Pickering (H)
ESPRIT Eddie Edwards (H)
ESPRIT Victoria Taylor (F)
83Forum Flyers IV4949.3m
jacket (H)
andrewcrystal (H)
Steve Ockerby (H)
 
84Erg365 I4932.6m
M D MItchell (H)
lee robinson (H)
Thomas Millard (H)
 
85Paddy Power II4922.5m
davidmarks (H)
Joe A Keating (L)
 
86AIRC I4913.6m
Bjarne_DK (H)
AndersP_Swe (H)
Simon_Eng (H)
 
87Independent II4911.6m
Marcus Sherwood (H)
Craig Hudson (H)
Robert Dyke (L)
 
88Empty the Tanks I4865.5m
Richard Young (H)
Kevin Hillman (H)
Jonathan Turns ETT (H)
Rob Drury (L)
89Fitness Matters XI4848.3m
FM Bob Summons (H)
James Lowe (H)
Robin Lancefield (H)
 
90Taff Attack I4821m
Steve Selwood (H)
 
91Ergo Ergo Sum II4760.3m
Amy Powell (F)
Adelee (F)
Belinda Tracey (F)
 
92Forum Flyers III4754.7m
Ivan Vukovic (H)
Allan Hallberg (H)
Frank Noorlander (H)
Margaret Botterill (Mrs B) (L)
93MAD IV4743.7m
Jon Goodall (H)
Kieran Cahill (L)
Kelly Sapsford (F)
Janice Marston (F)
94AIRC II4726.5m
Harry_Sco (H)
Rob B_UK (H)
 
95ESPRIT VII4714m
ESPRIT Paul Butterworth (H)
ESPRIT Jim Aaron (H)
ESPRIT Jarrett Moore (H)
ESPRIT Cristiane Horst (F)
96Fitness Matters XII4713.3m
Cemlyn Jones (H)
Andy Barwell FM (H)
Matt Moren (H)
 
97CUS Bergamo I4694m
FREELANCE BG LANZONI S (L)
 
98Age Without Limits I4594m
Steve Motzny (H)
 
99Forum Flyers V4559m
Chris Whale (H)
John Stock (H)
Dave Moores (FF) (H)
 
100Forum Flyers VI4460m
Graham Woodley (H)
 
101#TokyRow I4294m
ObeseManRowing (H)
Tokyo Rose (F)
 
102Isenhurst Rowers III4274.6m
Fleur Blanford (L)
Charlotte Waggott (F)
Petra Hudson (F)
 
103ESPRIT VIII4198m
ESPRIT Paula Battrick (F)
 
104ROWING CLUB MANTOVA II4061m
FREELANCE MN AD CHIABERGE GIORGIO (H)
 
105Red Line Rowers VI4049.6m
Anna Hogg (F)
Diane Hunt RLR (F)
Gaynor Johnson (F)
 
106Gee Crew IV3987m
Past It (H)
 
107Team Oarsome V3889m
Graham Story (L)
Kay Hughes (F)
 
108Free Spirits VI3793m
Sharky Jacaway (F)
 
109FIRT IV3343.5m
Polytechnique Mauricio L (H)
Polytechnique Augustin B (L)
Polytechnique Ching-Yu L (L)
Polytechnique Gökçe A (F)
110Truro Goats I3321m
Tucks (H)
Wrighty (L)
Hannah Wright (F)
 
111Sub 7 XVII2206m
Wazza (H)
David Gillibrand (H)
 

The Cross-Team Challenge is not supported or endorsed by Concept 2.
Site written by Daren Chandisingh. Please post any problems on the UK Concept 2 forum.

Valid XHTML 1.0 Transitional